Time;durP1;ratioP1;P1;durP2;ratioP2;P2;SDS_P1;SDS_P2;PMS_P1;PMS_P2;Temp;Humidity;BMP_temperature;BMP_pressure;BME280_temperature;BME280_humidity;BME280_pressure;Samples;Min_cycle;Max_cycle;Signal;HPM_P1;HPM_P2
2021/03/09 00:02:46;;;;;;;46.03;21.77;;;3.20;99.90;;;;;;12603244;28;20087;-84
2021/03/09 00:08:48;;;;;;;49.95;22.27;;;3.20;99.90;;;;;;12600886;28;20051;-84
2021/03/09 00:14:49;;;;;;;46.15;19.98;;;3.20;99.90;;;;;;12614446;28;20518;-84
2021/03/09 00:21:04;;;;;;;46.53;20.27;;;3.20;99.90;;;;;;12620976;28;20044;-84
2021/03/09 00:27:09;;;;;;;46.80;20.65;;;3.20;99.90;;;;;;12614513;28;20052;-84
2021/03/09 00:33:10;;;;;;;47.33;20.90;;;3.20;99.90;;;;;;12607230;28;20097;-84
2021/03/09 00:39:11;;;;;;;40.78;19.08;;;3.10;99.90;;;;;;12619625;28;20074;-84
2021/03/09 00:45:13;;;;;;;47.58;20.83;;;3.10;99.90;;;;;;12587003;28;20040;-84
2021/03/09 00:51:32;;;;;;;46.22;20.55;;;3.10;99.90;;;;;;12590189;28;20048;-84
2021/03/09 00:57:33;;;;;;;44.45;21.38;;;3.00;99.90;;;;;;12605992;28;20052;-84
2021/03/09 01:03:35;;;;;;;54.00;21.75;;;3.00;99.90;;;;;;12608788;28;20072;-84
2021/03/09 01:09:36;;;;;;;45.05;21.88;;;2.90;99.90;;;;;;12610316;28;20051;-84
2021/03/09 01:15:39;;;;;;;45.72;21.00;;;2.90;99.90;;;;;;12600055;28;20095;-84
2021/03/09 01:21:52;;;;;;;48.40;21.15;;;2.90;99.90;;;;;;12613237;28;20048;-84
2021/03/09 01:27:54;;;;;;;50.65;21.90;;;2.90;99.90;;;;;;12600873;28;20551;-84
2021/03/09 01:33:55;;;;;;;47.10;21.77;;;2.80;99.90;;;;;;12634173;28;20044;-84
2021/03/09 01:39:56;;;;;;;55.88;22.20;;;2.80;99.90;;;;;;12609612;28;20103;-83
2021/03/09 01:45:58;;;;;;;54.28;21.83;;;2.80;99.90;;;;;;12606293;28;20066;-83
2021/03/09 01:52:14;;;;;;;53.45;21.65;;;2.80;99.90;;;;;;12610784;28;20512;-83
2021/03/09 01:58:19;;;;;;;56.30;22.00;;;2.80;99.90;;;;;;12601888;28;21311;-83
2021/03/09 02:04:21;;;;;;;48.03;20.95;;;2.80;99.90;;;;;;12603724;28;20075;-83
2021/03/09 02:10:23;;;;;;;55.47;23.00;;;2.80;99.90;;;;;;12587449;28;20482;-83
2021/03/09 02:16:31;;;;;;;47.78;20.95;;;2.70;99.90;;;;;;12607703;28;20518;-83
2021/03/09 02:22:54;;;;;;;57.83;23.75;;;2.70;99.90;;;;;;12601479;28;20048;-83
2021/03/09 02:29:20;;;;;;;59.92;23.70;;;2.60;99.90;;;;;;12610582;28;20097;-84
2021/03/09 02:35:24;;;;;;;72.20;27.40;;;2.50;99.90;;;;;;12605608;28;20070;-84
2021/03/09 02:41:27;;;;;;;74.23;26.77;;;2.40;99.90;;;;;;12592327;28;20052;-84
2021/03/09 02:47:31;;;;;;;77.57;27.65;;;2.30;99.90;;;;;;12607615;28;20123;-84
2021/03/09 02:53:34;;;;;;;83.70;28.42;;;2.20;99.90;;;;;;12623485;28;20130;-85
2021/03/09 02:59:37;;;;;;;75.57;27.55;;;2.20;99.90;;;;;;12627010;28;20048;-85
2021/03/09 03:05:40;;;;;;;68.20;28.80;;;2.20;99.90;;;;;;12615412;28;20416;-85
2021/03/09 03:11:43;;;;;;;80.40;29.40;;;2.20;99.90;;;;;;12607864;28;20119;-85
2021/03/09 03:17:45;;;;;;;80.72;29.60;;;2.20;99.90;;;;;;12620544;28;20529;-85
2021/03/09 03:23:47;;;;;;;80.50;31.75;;;2.20;99.90;;;;;;12602780;28;20112;-85
2021/03/09 03:29:49;;;;;;;95.88;31.00;;;2.10;99.90;;;;;;12603407;28;20048;-85
2021/03/09 03:35:50;;;;;;;86.43;31.02;;;2.10;99.90;;;;;;12595294;28;20089;-85
2021/03/09 03:41:52;;;;;;;94.38;32.20;;;2.00;99.90;;;;;;12602645;28;20468;-85
2021/03/09 03:47:56;;;;;;;104.88;35.72;;;2.00;99.90;;;;;;12600249;28;20193;-85
2021/03/09 03:53:58;;;;;;;;;;;2.00;99.90;;;;;;12604658;28;20036;-86
2021/03/09 04:00:05;;;;;;;93.43;34.72;;;2.00;99.90;;;;;;12601341;28;19920;-85
2021/03/09 04:06:08;;;;;;;95.85;34.47;;;1.90;99.90;;;;;;12602578;28;20177;-86
2021/03/09 04:12:10;;;;;;;92.50;33.10;;;1.90;99.90;;;;;;12598385;28;20064;-86
2021/03/09 04:18:14;;;;;;;82.07;31.45;;;1.90;99.90;;;;;;12601970;28;20391;-85
2021/03/09 04:24:16;;;;;;;92.03;33.67;;;1.90;99.90;;;;;;12602475;28;20055;-86
2021/03/09 04:30:18;;;;;;;98.93;33.53;;;2.00;99.90;;;;;;12611031;28;20265;-85
2021/03/09 04:36:21;;;;;;;93.05;33.95;;;1.90;99.90;;;;;;12609077;28;20124;-86
2021/03/09 04:42:22;;;;;;;120.35;36.92;;;2.00;99.90;;;;;;12613907;28;20130;-85
2021/03/09 04:48:25;;;;;;;97.13;34.42;;;2.00;99.90;;;;;;12614794;28;20135;-86
2021/03/09 04:54:34;;;;;;;107.65;36.78;;;2.00;99.90;;;;;;12617326;28;20044;-85
2021/03/09 05:00:35;;;;;;;112.05;35.95;;;2.00;99.90;;;;;;12602771;28;20052;-85
2021/03/09 05:06:37;;;;;;;110.88;36.88;;;2.10;99.90;;;;;;12589356;28;20093;-85
2021/03/09 05:12:40;;;;;;;114.03;36.10;;;2.10;99.90;;;;;;12590432;28;20071;-86
2021/03/09 05:18:41;;;;;;;122.63;37.92;;;2.10;99.90;;;;;;12611898;28;20135;-85
2021/03/09 05:24:53;;;;;;;110.03;36.25;;;2.10;99.90;;;;;;12609160;28;20055;-85
2021/03/09 05:30:54;;;;;;;109.80;34.38;;;2.10;99.90;;;;;;12609150;28;20064;-86
2021/03/09 05:36:56;;;;;;;104.20;34.92;;;2.00;99.90;;;;;;12608231;28;20043;-86
2021/03/09 05:42:57;;;;;;;113.25;35.28;;;2.10;99.90;;;;;;12598046;28;20139;-86
2021/03/09 05:48:59;;;;;;;111.55;36.55;;;2.00;99.90;;;;;;12606182;28;20040;-86
2021/03/09 05:55:19;;;;;;;115.65;35.80;;;2.00;99.90;;;;;;12603720;28;20416;-87
2021/03/09 06:01:21;;;;;;;109.63;33.92;;;1.90;99.90;;;;;;12596144;28;20479;-87
2021/03/09 06:07:23;;;;;;;103.88;34.08;;;1.90;99.90;;;;;;12605566;28;20052;-88
2021/03/09 06:13:34;;;;;;;103.68;32.53;;;1.80;99.90;;;;;;12600407;28;20073;-86
2021/03/09 06:19:47;;;;;;;103.80;32.47;;;1.80;99.90;;;;;;12606859;28;20040;-87
2021/03/09 06:25:48;;;;;;;100.60;31.52;;;1.90;99.90;;;;;;12591057;28;20147;-87
2021/03/09 06:31:49;;;;;;;107.32;32.47;;;1.90;99.90;;;;;;12603861;28;20127;-87
2021/03/09 06:37:51;;;;;;;97.15;31.17;;;1.90;99.90;;;;;;12601325;28;20881;-87
2021/03/09 06:44:02;;;;;;;98.07;30.65;;;2.00;99.90;;;;;;12606771;28;20056;-87
2021/03/09 06:50:06;;;;;;;90.68;29.80;;;2.00;99.90;;;;;;12603972;28;20103;-86
2021/03/09 06:56:24;;;;;;;;;;;2.00;99.90;;;;;;12613604;28;20065;-87
2021/03/09 07:02:27;;;;;;;88.60;27.98;;;2.10;99.90;;;;;;12592416;28;20005;-88
2021/03/09 07:08:29;;;;;;;87.43;28.67;;;2.10;99.90;;;;;;12608596;28;20074;-87
2021/03/09 07:14:32;;;;;;;88.50;27.70;;;2.10;99.90;;;;;;12602646;28;20060;-88
2021/03/09 07:20:33;;;;;;;84.30;27.05;;;2.20;99.90;;;;;;12596935;28;20458;-88
2021/03/09 07:26:40;;;;;;;94.22;27.10;;;2.20;99.90;;;;;;12604282;28;20044;-86
2021/03/09 07:32:47;;;;;;;78.18;26.92;;;2.30;99.90;;;;;;12599249;28;20044;-87
2021/03/09 07:38:49;;;;;;;72.97;25.63;;;2.20;99.90;;;;;;12597734;28;20074;-88
2021/03/09 07:44:52;;;;;;;66.00;24.17;;;2.30;99.90;;;;;;12600939;28;20070;-88
2021/03/09 07:51:05;;;;;;;75.88;26.25;;;2.30;99.90;;;;;;12594537;28;20068;-87
2021/03/09 07:57:20;;;;;;;65.13;23.35;;;2.30;99.90;;;;;;12603339;28;20032;-87
2021/03/09 08:03:27;;;;;;;58.22;22.13;;;2.40;99.90;;;;;;12600142;28;20408;-87
2021/03/09 08:09:35;;;;;;;61.70;23.10;;;2.40;99.90;;;;;;12575574;28;20024;-86
2021/03/09 08:15:38;;;;;;;54.13;21.35;;;2.30;99.90;;;;;;12602086;28;20031;-87
2021/03/09 08:21:50;;;;;;;56.42;22.42;;;2.30;99.90;;;;;;12602899;28;20036;-86
2021/03/09 08:27:51;;;;;;;57.50;21.58;;;2.40;99.90;;;;;;12599997;28;20357;-87
2021/03/09 08:34:13;;;;;;;50.15;21.85;;;2.40;99.90;;;;;;12598474;28;20052;-87
2021/03/09 08:40:15;;;;;;;44.03;18.40;;;2.40;99.90;;;;;;12592537;28;20036;-88
2021/03/09 08:46:16;;;;;;;41.50;17.85;;;2.40;99.90;;;;;;12597047;28;20041;-88
2021/03/09 08:52:18;;;;;;;44.72;18.77;;;2.40;99.90;;;;;;12595785;28;20048;-88
2021/03/09 08:58:19;;;;;;;42.83;16.77;;;2.40;99.90;;;;;;12597302;28;20049;-88
2021/03/09 09:04:21;;;;;;;40.47;18.05;;;2.50;99.90;;;;;;12593393;28;20096;-87
2021/03/09 09:10:23;;;;;;;34.40;16.45;;;2.50;99.90;;;;;;12598997;28;20067;-88
2021/03/09 09:16:25;;;;;;;35.70;16.55;;;2.50;99.90;;;;;;12600060;28;20103;-88
2021/03/09 09:22:28;;;;;;;32.17;14.63;;;2.60;99.90;;;;;;12612770;28;20048;-88
2021/03/09 09:28:34;;;;;;;31.98;15.80;;;2.70;99.90;;;;;;12608472;28;20373;-88
2021/03/09 09:34:37;;;;;;;29.30;14.32;;;2.70;99.90;;;;;;12609850;28;20048;-87
2021/03/09 09:40:42;;;;;;;26.38;14.60;;;2.90;99.90;;;;;;12623442;28;20040;-88
2021/03/09 09:46:45;;;;;;;27.67;13.93;;;2.80;99.90;;;;;;12604949;28;20048;-88
2021/03/09 09:52:54;;;;;;;24.08;12.65;;;2.80;99.90;;;;;;12605133;28;20058;-88
2021/03/09 09:58:58;;;;;;;27.17;14.20;;;2.70;99.90;;;;;;12621277;28;20064;-89
2021/03/09 10:04:59;;;;;;;26.95;13.25;;;2.90;99.90;;;;;;12600729;28;20043;-88
2021/03/09 10:11:02;;;;;;;25.15;13.38;;;2.90;99.90;;;;;;12596603;28;20143;-89
2021/03/09 10:17:04;;;;;;;25.85;13.55;;;2.80;99.90;;;;;;12598564;28;20092;-89
2021/03/09 10:23:06;;;;;;;24.35;13.35;;;2.80;99.90;;;;;;12603842;28;20044;-88
2021/03/09 10:29:11;;;;;;;24.83;13.63;;;3.00;99.90;;;;;;12612993;28;20044;-88
2021/03/09 10:35:15;;;;;;;22.50;13.10;;;3.10;99.90;;;;;;12615319;28;20416;-88
2021/03/09 10:41:26;;;;;;;25.33;13.98;;;2.90;99.90;;;;;;12614723;28;20093;-89
2021/03/09 10:47:29;;;;;;;26.92;14.45;;;2.60;99.90;;;;;;12629299;28;20047;-88
2021/03/09 10:53:32;;;;;;;23.67;12.57;;;2.40;99.90;;;;;;12612781;28;20201;-88
2021/03/09 10:59:36;;;;;;;24.70;13.50;;;2.50;99.90;;;;;;12609947;28;20412;-89
2021/03/09 11:05:38;;;;;;;22.42;12.25;;;2.60;99.90;;;;;;12606403;28;20036;-88
2021/03/09 11:11:41;;;;;;;24.02;12.98;;;2.50;99.90;;;;;;12607309;28;20054;-88
2021/03/09 11:17:44;;;;;;;23.05;13.15;;;2.50;99.90;;;;;;12620512;28;20524;-88
2021/03/09 11:23:51;;;;;;;23.40;11.63;;;2.50;99.90;;;;;;12605753;28;20080;-88
2021/03/09 11:29:52;;;;;;;19.38;11.80;;;2.50;99.90;;;;;;12605211;28;20059;-87
2021/03/09 11:35:54;;;;;;;23.25;12.52;;;2.70;99.90;;;;;;12617212;28;20181;-87
2021/03/09 11:41:56;;;;;;;22.40;12.75;;;2.70;99.90;;;;;;12611419;28;20067;-87
2021/03/09 11:47:59;;;;;;;24.65;12.02;;;2.80;99.90;;;;;;12621908;28;20070;-86
2021/03/09 11:54:03;;;;;;;19.90;11.57;;;2.80;99.90;;;;;;12620431;28;20042;-86
2021/03/09 12:00:07;;;;;;;21.15;12.65;;;2.80;99.90;;;;;;12616139;28;20259;-87
2021/03/09 12:06:11;;;;;;;22.55;12.80;;;2.70;99.90;;;;;;12582227;28;20048;-87
2021/03/09 12:12:12;;;;;;;25.80;13.88;;;2.80;99.90;;;;;;12599775;28;20178;-88
2021/03/09 12:18:14;;;;;;;24.60;14.45;;;2.70;99.90;;;;;;12599842;28;20132;-87
2021/03/09 12:24:15;;;;;;;21.35;13.60;;;2.90;99.90;;;;;;12598049;28;20093;-87
2021/03/09 12:30:17;;;;;;;21.40;12.77;;;3.00;99.90;;;;;;12595828;28;20552;-87
2021/03/09 12:36:18;;;;;;;20.75;12.77;;;3.00;99.90;;;;;;12600855;28;20048;-87
2021/03/09 12:42:20;;;;;;;19.45;12.25;;;3.10;99.90;;;;;;12603775;28;20060;-87
2021/03/09 12:48:21;;;;;;;20.48;12.02;;;3.20;99.90;;;;;;12592516;28;20483;-86
2021/03/09 12:54:23;;;;;;;18.50;12.65;;;3.20;99.90;;;;;;12597256;28;20044;-87
2021/03/09 13:00:24;;;;;;;20.67;13.18;;;3.20;99.90;;;;;;12599255;28;20438;-87
2021/03/09 13:06:26;;;;;;;23.20;12.85;;;3.10;99.90;;;;;;12605494;28;20081;-86
2021/03/09 13:12:27;;;;;;;19.10;12.25;;;2.90;99.90;;;;;;12601619;28;20048;-87
2021/03/09 13:18:29;;;;;;;21.67;12.85;;;2.80;99.90;;;;;;12610977;28;20051;-86
2021/03/09 13:24:30;;;;;;;19.88;11.95;;;2.90;99.90;;;;;;12604995;28;20055;-87
2021/03/09 13:30:32;;;;;;;21.50;13.75;;;2.90;99.90;;;;;;12598141;28;20052;-87
2021/03/09 13:36:33;;;;;;;22.33;13.35;;;2.90;99.90;;;;;;12606196;28;20142;-86
2021/03/09 13:42:34;;;;;;;21.30;12.93;;;3.00;99.90;;;;;;12600589;28;20087;-87
2021/03/09 13:48:39;;;;;;;23.50;14.00;;;3.00;99.90;;;;;;12606995;28;20209;-86
2021/03/09 13:54:42;;;;;;;21.95;13.20;;;2.90;99.90;;;;;;12603214;28;20071;-86
2021/03/09 14:00:48;;;;;;;24.08;14.48;;;3.00;99.90;;;;;;12618292;28;20259;-86
2021/03/09 14:06:49;;;;;;;23.73;14.68;;;3.00;99.90;;;;;;12600051;28;20055;-87
2021/03/09 14:12:51;;;;;;;26.35;16.13;;;3.00;99.90;;;;;;12597677;28;20120;-87
2021/03/09 14:18:52;;;;;;;27.65;15.32;;;3.00;99.90;;;;;;12609257;28;20088;-86
2021/03/09 14:24:54;;;;;;;28.63;16.38;;;3.00;99.90;;;;;;12594246;28;20132;-86
2021/03/09 14:31:09;;;;;;;27.92;16.42;;;3.00;99.90;;;;;;12602573;28;20051;-86
2021/03/09 14:37:10;;;;;;;29.42;17.38;;;3.00;99.90;;;;;;12616651;28;20086;-86
2021/03/09 14:43:11;;;;;;;29.95;17.20;;;3.10;99.90;;;;;;12599519;28;20048;-86
2021/03/09 14:49:13;;;;;;;27.73;16.88;;;3.10;99.90;;;;;;12602265;28;20067;-87
2021/03/09 14:55:14;;;;;;;27.65;15.82;;;3.20;99.90;;;;;;12594305;28;20059;-86
2021/03/09 15:01:31;;;;;;;27.20;16.05;;;3.20;99.90;;;;;;12633819;28;20040;-87
2021/03/09 15:07:33;;;;;;;29.52;17.05;;;3.30;99.90;;;;;;12655804;28;20040;-87
2021/03/09 15:13:34;;;;;;;27.70;16.52;;;3.30;99.90;;;;;;12665267;28;20048;-87
2021/03/09 15:19:38;;;;;;;25.88;15.68;;;3.30;99.90;;;;;;12651561;28;20054;-86
2021/03/09 15:25:40;;;;;;;31.42;17.25;;;3.30;99.90;;;;;;12643297;28;20459;-86
2021/03/09 15:31:59;;;;;;;28.75;16.38;;;3.30;99.90;;;;;;12624510;28;20401;-87
2021/03/09 15:38:00;;;;;;;28.23;16.55;;;3.30;99.90;;;;;;12612440;28;20411;-87
2021/03/09 15:44:03;;;;;;;26.63;16.38;;;3.30;99.90;;;;;;12607969;28;20178;-87
2021/03/09 15:50:07;;;;;;;26.90;16.48;;;3.40;99.90;;;;;;12609107;28;20072;-87
2021/03/09 15:56:09;;;;;;;27.00;16.57;;;3.40;99.90;;;;;;12606624;28;20064;-87
2021/03/09 16:02:14;;;;;;;25.17;16.02;;;3.40;99.90;;;;;;12607723;28;20108;-86
2021/03/09 16:08:15;;;;;;;30.45;16.80;;;3.50;99.90;;;;;;12610519;28;20063;-87
2021/03/09 16:14:17;;;;;;;26.92;15.38;;;3.40;99.90;;;;;;12598689;28;20185;-86
2021/03/09 16:20:19;;;;;;;32.53;17.52;;;3.30;99.90;;;;;;12609188;28;20048;-87
2021/03/09 16:26:20;;;;;;;28.23;17.85;;;3.30;99.90;;;;;;12615828;28;20075;-87
2021/03/09 16:32:21;;;;;;;30.83;16.85;;;3.30;99.90;;;;;;12612185;28;20055;-87
2021/03/09 16:38:23;;;;;;;28.58;16.55;;;3.30;99.90;;;;;;12616419;28;20193;-87
2021/03/09 16:44:24;;;;;;;27.83;16.67;;;3.20;99.90;;;;;;12608961;28;20116;-87
2021/03/09 16:50:26;;;;;;;31.70;17.35;;;3.30;99.90;;;;;;12608462;28;20070;-87
2021/03/09 16:56:27;;;;;;;28.45;17.45;;;3.30;99.90;;;;;;12619023;28;20051;-87
2021/03/09 17:02:29;;;;;;;43.42;18.58;;;3.30;99.90;;;;;;12608878;28;20070;-88
2021/03/09 17:08:31;;;;;;;36.05;18.27;;;3.30;99.90;;;;;;12613457;28;20126;-87
2021/03/09 17:14:32;;;;;;;35.92;18.63;;;3.30;99.90;;;;;;12622546;28;20148;-87
2021/03/09 17:20:33;;;;;;;39.20;19.92;;;3.30;99.90;;;;;;12607626;28;20085;-87
2021/03/09 17:26:39;;;;;;;42.10;19.80;;;3.30;99.90;;;;;;12618627;28;20242;-87
2021/03/09 17:32:41;;;;;;;31.83;18.63;;;3.30;99.90;;;;;;12610542;28;20040;-86
2021/03/09 17:38:43;;;;;;;38.33;20.27;;;3.30;99.90;;;;;;12596158;28;20085;-86
2021/03/09 17:44:50;;;;;;;57.35;22.83;;;3.20;99.90;;;;;;12605920;28;20178;-86
2021/03/09 17:50:51;;;;;;;42.33;22.08;;;3.20;99.90;;;;;;12603165;28;20527;-86
2021/03/09 17:56:52;;;;;;;60.08;22.60;;;3.20;99.90;;;;;;12601008;28;20108;-85
2021/03/09 18:02:54;;;;;;;46.53;24.27;;;3.20;99.90;;;;;;12600670;28;20074;-86
2021/03/09 18:08:55;;;;;;;47.95;22.73;;;3.20;99.90;;;;;;12603255;28;20051;-86
2021/03/09 18:14:56;;;;;;;40.58;23.02;;;3.20;99.90;;;;;;12597336;28;20076;-85
2021/03/09 18:20:58;;;;;;;41.42;22.85;;;3.40;99.90;;;;;;12604768;28;20043;-86
2021/03/09 18:26:59;;;;;;;40.97;22.30;;;3.30;99.90;;;;;;12606649;28;20040;-85
2021/03/09 18:33:01;;;;;;;89.47;26.90;;;3.30;99.90;;;;;;12600483;28;20049;-86
2021/03/09 18:39:03;;;;;;;86.45;26.45;;;3.30;99.90;;;;;;12602495;28;20089;-86
2021/03/09 18:45:06;;;;;;;233.75;33.50;;;3.30;99.90;;;;;;12593643;28;20040;-86
2021/03/09 18:51:08;;;;;;;69.50;27.08;;;3.20;99.90;;;;;;12605028;28;20040;-86
2021/03/09 18:57:09;;;;;;;62.03;27.83;;;3.20;99.90;;;;;;12597496;28;20056;-86
2021/03/09 19:03:10;;;;;;;433.45;39.67;;;3.30;99.90;;;;;;12595873;28;20056;-85
2021/03/09 19:09:12;;;;;;;69.15;27.75;;;3.20;99.90;;;;;;12594697;28;20052;-86
2021/03/09 19:15:14;;;;;;;100.85;29.05;;;3.20;99.90;;;;;;12593029;28;20068;-85
2021/03/09 19:21:19;;;;;;;93.30;27.92;;;3.10;99.90;;;;;;12603008;28;20056;-85
2021/03/09 19:27:21;;;;;;;107.78;28.02;;;3.10;99.90;;;;;;12593494;28;20056;-85
2021/03/09 19:33:22;;;;;;;65.57;27.48;;;3.10;99.90;;;;;;12591535;28;20127;-86
2021/03/09 19:39:24;;;;;;;88.63;27.35;;;3.10;99.90;;;;;;12596892;28;20083;-86
2021/03/09 19:45:28;;;;;;;69.60;24.48;;;3.30;99.90;;;;;;12598042;28;20102;-86
2021/03/09 19:51:29;;;;;;;113.87;25.27;;;3.40;99.90;;;;;;12586739;28;20051;-86
2021/03/09 19:57:30;;;;;;;113.15;25.85;;;3.40;99.90;;;;;;12598230;28;20192;-85
2021/03/09 20:03:33;;;;;;;152.70;28.58;;;3.40;99.90;;;;;;12582352;28;20067;-86
2021/03/09 20:09:35;;;;;;;59.72;22.83;;;3.40;99.90;;;;;;12598646;28;20048;-86
2021/03/09 20:15:37;;;;;;;71.03;25.42;;;3.40;99.90;;;;;;12584849;28;20123;-86
2021/03/09 20:21:38;;;;;;;95.85;24.35;;;3.30;99.90;;;;;;12599754;28;20077;-86
2021/03/09 20:27:41;;;;;;;91.72;26.20;;;3.30;99.90;;;;;;12595734;28;20097;-85
2021/03/09 20:33:44;;;;;;;264.40;33.00;;;3.40;99.90;;;;;;12589996;28;20538;-86
2021/03/09 20:39:45;;;;;;;154.68;27.88;;;3.20;99.90;;;;;;12595949;28;20052;-86
2021/03/09 20:45:46;;;;;;;160.20;27.85;;;3.20;99.90;;;;;;12593606;28;20052;-86
2021/03/09 20:51:48;;;;;;;75.07;24.85;;;3.30;99.90;;;;;;12600434;28;20040;-86
2021/03/09 20:57:54;;;;;;;132.15;26.95;;;3.40;99.90;;;;;;12585206;28;20416;-86
2021/03/09 21:03:55;;;;;;;246.63;33.15;;;3.40;99.90;;;;;;12586692;28;20185;-85
2021/03/09 21:09:56;;;;;;;63.30;26.08;;;3.40;99.90;;;;;;12594793;28;20078;-86
2021/03/09 21:15:58;;;;;;;51.88;24.52;;;3.40;99.90;;;;;;12598971;28;20043;-86
2021/03/09 21:22:00;;;;;;;132.43;30.42;;;3.20;99.90;;;;;;12604809;28;20040;-86
2021/03/09 21:28:02;;;;;;;109.15;30.35;;;3.20;99.90;;;;;;12598710;28;20126;-86
2021/03/09 21:34:03;;;;;;;98.03;28.75;;;3.20;99.90;;;;;;12597046;28;20135;-86
2021/03/09 21:40:07;;;;;;;89.78;27.33;;;3.10;99.90;;;;;;12609348;28;20063;-86
2021/03/09 21:46:08;;;;;;;233.60;33.38;;;3.30;99.90;;;;;;12606132;28;20055;-86
2021/03/09 21:52:10;;;;;;;285.98;38.63;;;3.20;99.90;;;;;;12604375;28;20047;-86
2021/03/09 21:58:11;;;;;;;56.17;26.00;;;3.20;99.90;;;;;;12606022;28;20121;-85
2021/03/09 22:04:12;;;;;;;57.58;26.58;;;3.20;99.90;;;;;;12615997;28;20055;-86
2021/03/09 22:10:14;;;;;;;53.80;23.63;;;3.20;99.90;;;;;;12597470;28;20167;-86
2021/03/09 22:16:15;;;;;;;56.88;25.88;;;3.10;99.90;;;;;;12599060;28;20056;-86
2021/03/09 22:22:17;;;;;;;153.88;30.40;;;3.30;99.90;;;;;;12597287;28;20047;-86
2021/03/09 22:28:19;;;;;;;55.28;26.20;;;3.20;99.90;;;;;;12592936;28;20048;-86
2021/03/09 22:34:20;;;;;;;118.82;30.08;;;3.30;99.90;;;;;;12593465;28;20658;-85
2021/03/09 22:40:22;;;;;;;123.40;31.70;;;3.20;99.90;;;;;;12593811;28;20049;-86
2021/03/09 22:46:27;;;;;;;81.95;29.17;;;3.20;99.90;;;;;;12597634;28;20456;-86
2021/03/09 22:52:28;;;;;;;209.75;36.42;;;3.10;99.90;;;;;;12593561;28;20063;-85
2021/03/09 22:58:30;;;;;;;85.57;28.55;;;3.30;99.90;;;;;;12601707;28;20107;-86
2021/03/09 23:04:31;;;;;;;104.13;31.33;;;3.20;99.90;;;;;;12601507;28;20153;-85
2021/03/09 23:10:32;;;;;;;132.40;33.10;;;3.10;99.90;;;;;;12597965;28;20587;-86
2021/03/09 23:16:34;;;;;;;115.43;32.55;;;3.10;99.90;;;;;;12604018;28;20352;-86
2021/03/09 23:22:35;;;;;;;76.60;30.52;;;3.10;99.90;;;;;;12598355;28;20518;-86
2021/03/09 23:28:37;;;;;;;83.75;31.48;;;3.10;99.90;;;;;;12591700;28;20054;-85
2021/03/09 23:34:39;;;;;;;82.22;31.33;;;3.20;99.90;;;;;;12590816;28;20411;-85
2021/03/09 23:40:42;;;;;;;66.10;29.33;;;3.00;99.90;;;;;;12596588;28;20092;-85
2021/03/09 23:46:43;;;;;;;62.67;28.00;;;3.00;99.90;;;;;;12610670;28;20060;-85
2021/03/09 23:52:45;;;;;;;72.80;30.65;;;3.10;99.90;;;;;;12597330;28;20040;-85
2021/03/09 23:58:46;;;;;;;62.40;27.77;;;3.10;99.90;;;;;;12571726;28;20084;-85
